createdAt,value
2017-07-22T00:00:05.898Z,21.72
2017-07-22T00:01:07.795Z,21.69
2017-07-22T00:02:09.690Z,21.75
2017-07-22T00:03:11.559Z,21.72
2017-07-22T00:04:25.701Z,21.74
2017-07-22T00:05:27.595Z,21.67
2017-07-22T00:06:29.463Z,21.72
2017-07-22T00:07:31.337Z,21.65
2017-07-22T00:08:33.151Z,21.65
2017-07-22T00:09:34.971Z,21.62
2017-07-22T00:10:36.852Z,21.58
2017-07-22T00:11:38.744Z,21.52
2017-07-22T00:12:40.616Z,21.47
2017-07-22T00:13:54.781Z,21.47
2017-07-22T00:14:56.654Z,21.40
2017-07-22T00:15:58.553Z,21.37
2017-07-22T00:17:00.450Z,21.37
2017-07-22T00:18:02.280Z,21.31
2017-07-22T00:19:04.111Z,21.31
2017-07-22T00:20:06.008Z,21.29
2017-07-22T00:21:07.899Z,21.29
2017-07-22T00:22:09.771Z,21.17
2017-07-22T00:23:23.909Z,21.14
2017-07-22T00:24:25.781Z,21.17
2017-07-22T00:25:27.679Z,21.10
2017-07-22T00:26:29.572Z,21.14
2017-07-22T00:27:31.403Z,21.14
2017-07-22T00:28:33.211Z,21.03
2017-07-22T00:29:35.102Z,21.06
2017-07-22T00:30:37.006Z,21.12
2017-07-22T00:31:38.873Z,21.10
2017-07-22T00:32:53.017Z,21.12
2017-07-22T00:33:54.888Z,21.12
2017-07-22T00:34:56.757Z,21.09
2017-07-22T00:35:58.652Z,21.04
2017-07-22T00:37:00.463Z,21.03
2017-07-22T00:38:02.273Z,21.06
2017-07-22T00:39:04.163Z,21.01
2017-07-22T00:40:06.038Z,21.04
2017-07-22T00:41:07.933Z,21.06
2017-07-22T00:42:22.101Z,21.06
2017-07-22T00:43:24.002Z,20.99
2017-07-22T00:44:25.865Z,20.97
2017-07-22T00:45:27.763Z,21.06
2017-07-22T00:46:29.591Z,20.97
2017-07-22T00:47:31.396Z,21.01
2017-07-22T00:48:33.272Z,20.99
2017-07-22T00:49:35.170Z,20.97
2017-07-22T00:50:37.061Z,20.92
2017-07-22T00:51:51.205Z,20.99
2017-07-22T00:52:53.081Z,20.89
2017-07-22T00:53:54.973Z,20.95
2017-07-22T00:54:56.849Z,20.89
2017-07-22T00:55:58.683Z,20.89
2017-07-22T00:57:00.512Z,20.87
2017-07-22T00:58:02.403Z,20.94
2017-07-22T00:59:04.279Z,20.88
2017-07-22T01:00:06.175Z,20.87
2017-07-22T01:01:27.776Z,20.92
2017-07-22T01:02:29.643Z,20.85
2017-07-22T01:03:31.517Z,20.87
2017-07-22T01:04:33.406Z,20.77
2017-07-22T01:05:35.216Z,20.82
2017-07-22T01:06:37.042Z,20.73
2017-07-22T01:07:38.910Z,20.69
2017-07-22T01:08:40.801Z,20.67
2017-07-22T01:09:42.669Z,20.57
2017-07-22T01:10:56.791Z,20.59
2017-07-22T01:11:58.618Z,20.58
2017-07-22T01:13:00.425Z,20.55
2017-07-22T01:14:02.248Z,20.58
2017-07-22T01:15:04.119Z,20.54
2017-07-22T01:16:06.012Z,20.64
2017-07-22T01:17:07.854Z,20.55
2017-07-22T01:18:09.680Z,20.59
2017-07-22T01:19:11.492Z,20.55
2017-07-22T01:20:25.714Z,20.62
2017-07-22T01:21:27.589Z,20.52
2017-07-22T01:22:29.457Z,20.52
2017-07-22T01:23:31.326Z,20.66
2017-07-22T01:24:33.152Z,20.67
2017-07-22T01:25:34.961Z,20.70
2017-07-22T01:26:36.851Z,20.57
2017-07-22T01:27:38.719Z,20.61
2017-07-22T01:28:40.614Z,20.59
2017-07-22T01:29:54.780Z,20.70
2017-07-22T01:30:56.673Z,20.58
2017-07-22T01:31:58.538Z,20.57
2017-07-22T01:33:00.414Z,20.57
2017-07-22T01:34:02.242Z,20.67
2017-07-22T01:35:04.070Z,20.58
2017-07-22T01:36:05.937Z,20.54
2017-07-22T01:37:07.824Z,20.58
2017-07-22T01:38:09.698Z,20.48
2017-07-22T01:39:23.861Z,20.41
2017-07-22T01:40:25.730Z,20.32
2017-07-22T01:41:27.595Z,20.31
2017-07-22T01:42:29.464Z,20.38
2017-07-22T01:43:31.266Z,20.21
2017-07-22T01:44:33.076Z,20.31
2017-07-22T01:45:34.967Z,20.35
2017-07-22T01:46:36.859Z,20.33
2017-07-22T01:47:38.756Z,20.31
2017-07-22T01:48:52.902Z,20.36
2017-07-22T01:49:54.728Z,20.31
2017-07-22T01:50:56.598Z,20.29
2017-07-22T01:51:58.489Z,20.32
2017-07-22T01:53:00.354Z,20.23
2017-07-22T01:54:02.180Z,20.29
2017-07-22T01:55:03.980Z,20.29
2017-07-22T01:56:05.847Z,20.26
2017-07-22T01:57:07.721Z,20.31
2017-07-22T01:58:21.918Z,20.33
2017-07-22T01:59:23.789Z,20.20
2017-07-22T02:00:25.663Z,20.26
2017-07-22T02:01:27.528Z,20.31
2017-07-22T02:02:29.356Z,20.32
2017-07-22T02:03:31.181Z,20.21
2017-07-22T02:04:33.053Z,20.21
2017-07-22T02:05:34.950Z,20.29
2017-07-22T02:06:36.843Z,20.17
2017-07-22T02:07:51.009Z,20.17
2017-07-22T02:08:52.904Z,20.21
2017-07-22T02:09:54.794Z,20.18
2017-07-22T02:10:56.671Z,20.18
2017-07-22T02:11:58.497Z,20.20
2017-07-22T02:13:00.304Z,20.14
2017-07-22T02:14:02.199Z,20.20
2017-07-22T02:15:04.091Z,20.13
2017-07-22T02:16:05.959Z,20.16
2017-07-22T02:17:20.111Z,20.10
2017-07-22T02:18:21.970Z,20.14
2017-07-22T02:19:23.841Z,20.11
2017-07-22T02:20:25.732Z,20.11
2017-07-22T02:21:27.542Z,20.11
2017-07-22T02:22:29.367Z,20.05
2017-07-22T02:23:31.242Z,20.02
2017-07-22T02:24:33.128Z,19.98
2017-07-22T02:25:34.999Z,19.99
2017-07-22T02:26:49.170Z,19.99
2017-07-22T02:27:51.058Z,19.98
2017-07-22T02:28:52.931Z,19.96
2017-07-22T02:29:54.800Z,19.95
2017-07-22T02:30:56.604Z,19.88
2017-07-22T02:31:58.410Z,19.91
2017-07-22T02:33:00.279Z,19.91
2017-07-22T02:34:02.151Z,19.86
2017-07-22T02:35:04.043Z,19.87
2017-07-22T02:36:18.180Z,19.92
2017-07-22T02:37:20.061Z,19.88
2017-07-22T02:38:21.914Z,19.84
2017-07-22T02:39:23.786Z,19.77
2017-07-22T02:40:25.616Z,19.71
2017-07-22T02:41:27.449Z,19.66
2017-07-22T02:42:29.336Z,19.66
2017-07-22T02:43:31.206Z,19.68
2017-07-22T02:44:33.079Z,19.66
2017-07-22T02:45:47.247Z,19.76
2017-07-22T02:46:49.141Z,19.66
2017-07-22T02:47:51.016Z,19.62
2017-07-22T02:48:52.905Z,19.68
2017-07-22T02:49:54.715Z,19.68
2017-07-22T02:50:56.516Z,19.74
2017-07-22T02:51:58.386Z,19.73
2017-07-22T02:53:00.262Z,19.69
2017-07-22T02:54:02.152Z,19.73
2017-07-22T02:55:16.293Z,19.69
2017-07-22T02:56:18.171Z,19.63
2017-07-22T02:57:20.066Z,19.69
2017-07-22T02:58:21.956Z,19.59
2017-07-22T02:59:23.761Z,19.62
2017-07-22T03:00:25.563Z,19.61
2017-07-22T03:01:27.439Z,19.56
2017-07-22T03:02:29.335Z,19.55
2017-07-22T03:03:31.230Z,19.55
2017-07-22T03:04:45.375Z,19.56
2017-07-22T03:05:47.270Z,19.56
2017-07-22T03:06:49.145Z,19.58
2017-07-22T03:07:51.039Z,19.58
2017-07-22T03:08:52.843Z,19.58
2017-07-22T03:09:54.650Z,19.69
2017-07-22T03:10:56.517Z,19.61
2017-07-22T03:11:58.395Z,19.65
2017-07-22T03:13:00.266Z,19.68
2017-07-22T03:14:14.435Z,19.78
2017-07-22T03:15:16.331Z,19.69
2017-07-22T03:16:18.212Z,19.77
2017-07-22T03:17:20.101Z,19.71
2017-07-22T03:18:21.909Z,19.69
2017-07-22T03:19:23.717Z,19.63
2017-07-22T03:20:25.592Z,19.65
2017-07-22T03:21:27.492Z,19.73
2017-07-22T03:22:29.366Z,19.59
2017-07-22T03:23:43.530Z,19.58
2017-07-22T03:24:45.398Z,19.62
2017-07-22T03:25:47.270Z,19.62
2017-07-22T03:26:49.147Z,19.65
2017-07-22T03:27:50.972Z,19.76
2017-07-22T03:28:52.780Z,19.92
2017-07-22T03:29:54.654Z,19.96
2017-07-22T03:30:56.551Z,19.99
2017-07-22T03:31:58.419Z,20.13
2017-07-22T03:33:12.569Z,20.17
2017-07-22T03:34:14.465Z,20.29
2017-07-22T03:35:16.337Z,20.54
2017-07-22T03:36:18.219Z,20.62
2017-07-22T03:37:20.017Z,20.79
2017-07-22T03:38:21.833Z,20.76
2017-07-22T03:39:23.727Z,20.98
2017-07-22T03:40:25.598Z,21.14
2017-07-22T03:41:27.470Z,21.29
2017-07-22T03:42:41.619Z,21.44
2017-07-22T03:43:43.514Z,21.49
2017-07-22T03:44:45.395Z,21.71
2017-07-22T03:45:47.288Z,21.82
2017-07-22T03:46:49.105Z,21.92
2017-07-22T03:47:50.913Z,22.03
2017-07-22T03:48:52.790Z,22.22
2017-07-22T03:49:54.686Z,22.30
2017-07-22T03:50:56.563Z,22.51
2017-07-22T03:52:10.706Z,22.61
2017-07-22T03:53:12.586Z,22.76
2017-07-22T03:54:14.488Z,22.85
2017-07-22T03:55:16.384Z,23.01
2017-07-22T03:56:18.200Z,23.05
2017-07-22T03:57:20.027Z,23.02
2017-07-22T03:58:21.902Z,23.07
2017-07-22T03:59:23.780Z,23.23
2017-07-22T04:00:25.659Z,23.32
2017-07-22T04:01:39.805Z,23.40
2017-07-22T04:02:41.682Z,23.51
2017-07-22T04:03:43.560Z,23.61
2017-07-22T04:04:45.438Z,23.68
2017-07-22T04:05:47.245Z,23.72
2017-07-22T04:06:49.059Z,23.93
2017-07-22T04:07:50.955Z,24.02
2017-07-22T04:08:52.838Z,24.06
2017-07-22T04:09:54.717Z,24.16
2017-07-22T04:11:08.894Z,24.28
2017-07-22T04:12:10.799Z,24.37
2017-07-22T04:13:12.696Z,24.60
2017-07-22T04:14:14.576Z,24.68
2017-07-22T04:15:16.389Z,24.87
2017-07-22T04:16:18.229Z,25.08
2017-07-22T04:17:20.127Z,25.30
2017-07-22T04:18:22.029Z,25.45
2017-07-22T04:19:23.930Z,25.64
2017-07-22T04:20:38.106Z,25.77
2017-07-22T04:21:40.004Z,25.90
2017-07-22T04:22:41.886Z,25.95
2017-07-22T04:23:43.780Z,26.10
2017-07-22T04:24:45.594Z,26.21
2017-07-22T04:25:47.410Z,26.23
2017-07-22T04:26:49.282Z,26.26
2017-07-22T04:27:51.160Z,26.44
2017-07-22T04:28:53.063Z,26.47
2017-07-22T04:30:07.235Z,26.66
2017-07-22T04:31:09.115Z,26.87
2017-07-22T04:32:11.020Z,26.89
2017-07-22T04:33:12.916Z,26.88
2017-07-22T04:34:14.736Z,26.77
2017-07-22T04:35:16.565Z,26.94
2017-07-22T04:36:18.450Z,27.18
2017-07-22T04:37:20.324Z,27.44
2017-07-22T04:38:22.206Z,27.54
2017-07-22T04:39:36.401Z,27.66
2017-07-22T04:40:38.282Z,27.87
2017-07-22T04:41:40.182Z,28.03
2017-07-22T04:42:42.058Z,28.24
2017-07-22T04:43:43.874Z,28.34
2017-07-22T04:44:45.689Z,28.33
2017-07-22T04:45:47.574Z,28.39
2017-07-22T04:46:49.450Z,28.55
2017-07-22T04:47:51.338Z,28.59
2017-07-22T04:49:05.506Z,28.61
2017-07-22T04:50:07.390Z,28.52
2017-07-22T04:51:09.297Z,28.56
2017-07-22T04:52:11.196Z,28.76
2017-07-22T04:53:13.010Z,28.88
2017-07-22T04:54:14.831Z,29.06
2017-07-22T04:55:16.731Z,29.24
2017-07-22T04:56:18.612Z,29.30
2017-07-22T04:57:20.494Z,29.48
2017-07-22T04:58:34.675Z,29.53
2017-07-22T04:59:36.574Z,29.65
2017-07-22T05:00:38.462Z,29.70
2017-07-22T05:01:40.364Z,29.89
2017-07-22T05:02:42.199Z,30.08
2017-07-22T05:03:44.014Z,30.16
2017-07-22T05:04:45.894Z,30.10
2017-07-22T05:05:47.781Z,29.95
2017-07-22T05:06:49.686Z,29.97
2017-07-22T05:08:03.865Z,30.05
2017-07-22T05:09:05.772Z,30.10
2017-07-22T05:10:07.680Z,29.94
2017-07-22T05:11:09.581Z,29.87
2017-07-22T05:12:11.401Z,29.85
2017-07-22T05:13:13.240Z,29.90
2017-07-22T05:14:15.104Z,30.04
2017-07-22T05:15:16.998Z,30.05
2017-07-22T05:16:18.877Z,30.16
2017-07-22T05:17:33.052Z,30.31
2017-07-22T05:18:34.933Z,30.10
2017-07-22T05:19:36.837Z,30.04
2017-07-22T05:20:38.722Z,30.08
2017-07-22T05:21:40.560Z,30.01
2017-07-22T05:22:42.401Z,29.79
2017-07-22T05:23:44.237Z,29.65
2017-07-22T05:24:46.057Z,29.46
2017-07-22T05:25:47.897Z,29.24
2017-07-22T05:27:02.074Z,28.96
2017-07-22T05:28:03.954Z,28.77
2017-07-22T05:29:05.857Z,28.76
2017-07-22T05:30:07.736Z,28.66
2017-07-22T05:31:09.556Z,28.66
2017-07-22T05:32:11.370Z,28.70
2017-07-22T05:33:13.248Z,28.70
2017-07-22T05:34:15.151Z,28.71
2017-07-22T05:35:17.054Z,28.52
2017-07-22T05:36:31.208Z,28.40
2017-07-22T05:37:33.108Z,28.19
2017-07-22T05:38:34.987Z,28.18
2017-07-22T05:39:36.865Z,28.27
2017-07-22T05:40:38.677Z,28.06
2017-07-22T05:41:40.493Z,27.77
2017-07-22T05:42:42.393Z,27.69
2017-07-22T05:43:44.266Z,27.75
2017-07-22T05:44:46.145Z,27.72
2017-07-22T05:46:00.318Z,27.69
2017-07-22T05:47:02.220Z,27.67
2017-07-22T05:48:04.122Z,27.69
2017-07-22T05:49:05.992Z,27.69
2017-07-22T05:50:07.807Z,27.75
2017-07-22T05:51:09.626Z,27.69
2017-07-22T05:52:11.508Z,27.55
2017-07-22T05:53:13.379Z,27.40
2017-07-22T05:54:15.260Z,27.36
2017-07-22T05:55:29.485Z,27.28
2017-07-22T05:56:31.381Z,27.17
2017-07-22T05:57:33.260Z,27.10
2017-07-22T05:58:35.131Z,27.00
2017-07-22T05:59:36.950Z,27.13
2017-07-22T06:00:38.764Z,27.02
2017-07-22T06:01:40.661Z,27.02
2017-07-22T06:02:42.538Z,27.02
2017-07-22T06:03:44.419Z,26.99
2017-07-22T06:04:58.594Z,27.02
2017-07-22T06:06:00.473Z,27.18
2017-07-22T06:07:02.379Z,27.28
2017-07-22T06:08:04.254Z,27.39
2017-07-22T06:09:06.093Z,27.49
2017-07-22T06:10:07.927Z,27.41
2017-07-22T06:11:09.806Z,27.37
2017-07-22T06:12:11.690Z,27.37
2017-07-22T06:13:13.592Z,27.40
2017-07-22T06:14:27.763Z,27.27
2017-07-22T06:15:29.642Z,27.34
2017-07-22T06:16:31.517Z,27.29
2017-07-22T06:17:33.416Z,27.34
2017-07-22T06:18:35.234Z,27.37
2017-07-22T06:19:37.071Z,27.55
2017-07-22T06:20:38.951Z,27.66
2017-07-22T06:21:40.827Z,27.79
2017-07-22T06:22:42.730Z,27.93
2017-07-22T06:23:56.903Z,28.11
2017-07-22T06:24:58.779Z,28.02
2017-07-22T06:26:00.658Z,28.02
2017-07-22T06:27:02.554Z,28.12
2017-07-22T06:28:04.372Z,28.25
2017-07-22T06:29:06.211Z,28.34
2017-07-22T06:30:08.084Z,28.36
2017-07-22T06:31:09.989Z,28.41
2017-07-22T06:32:11.890Z,28.44
2017-07-22T06:33:26.067Z,28.59
2017-07-22T06:34:27.945Z,28.56
2017-07-22T06:35:29.843Z,28.52
2017-07-22T06:36:31.721Z,28.36
2017-07-22T06:37:33.533Z,28.34
2017-07-22T06:38:35.351Z,28.22
2017-07-22T06:39:37.545Z,28.12
2017-07-22T06:40:39.426Z,28.12
2017-07-22T06:41:41.324Z,28.12
2017-07-22T06:42:55.496Z,28.00
2017-07-22T06:43:57.378Z,28.06
2017-07-22T06:44:59.274Z,28.11
2017-07-22T06:46:01.156Z,28.27
2017-07-22T06:47:03.016Z,28.19
2017-07-22T06:48:04.829Z,28.37
2017-07-22T06:49:06.709Z,28.36
2017-07-22T06:50:08.588Z,28.34
2017-07-22T06:51:10.485Z,28.39
2017-07-22T06:52:24.640Z,28.59
2017-07-22T06:53:26.542Z,28.52
2017-07-22T06:54:28.416Z,28.61
2017-07-22T06:55:30.294Z,28.59
2017-07-22T06:56:32.108Z,28.67
2017-07-22T06:57:33.948Z,28.67
2017-07-22T06:58:35.842Z,28.67
2017-07-22T06:59:37.722Z,28.74
2017-07-22T07:00:39.600Z,28.73
2017-07-22T07:01:53.746Z,28.80
2017-07-22T07:02:55.614Z,28.86
2017-07-22T07:03:57.487Z,28.89
2017-07-22T07:04:59.362Z,28.76
2017-07-22T07:06:01.178Z,28.86
2017-07-22T07:07:03.012Z,28.89
2017-07-22T07:08:04.892Z,28.80
2017-07-22T07:09:06.795Z,28.88
2017-07-22T07:10:08.693Z,28.90
2017-07-22T07:11:22.867Z,28.95
2017-07-22T07:12:24.739Z,28.92
2017-07-22T07:13:26.615Z,28.98
2017-07-22T07:14:28.516Z,28.96
2017-07-22T07:15:30.350Z,29.04
2017-07-22T07:16:32.162Z,29.09
2017-07-22T07:17:34.044Z,29.11
2017-07-22T07:18:35.945Z,29.21
2017-07-22T07:19:37.842Z,29.19
2017-07-22T07:20:52.006Z,29.27
2017-07-22T07:21:53.903Z,29.37
2017-07-22T07:22:55.782Z,29.43
2017-07-22T07:23:57.652Z,29.63
2017-07-22T07:24:59.465Z,29.68
2017-07-22T07:26:01.282Z,29.68
2017-07-22T07:27:03.155Z,29.82
2017-07-22T07:28:05.037Z,29.89
2017-07-22T07:29:06.912Z,29.92
2017-07-22T07:30:21.069Z,30.05
2017-07-22T07:31:22.968Z,30.02
2017-07-22T07:32:24.851Z,30.02
2017-07-22T07:33:26.753Z,30.08
2017-07-22T07:34:28.595Z,30.02
2017-07-22T07:35:30.428Z,30.13
2017-07-22T07:36:32.301Z,30.16
2017-07-22T07:37:34.185Z,30.26
2017-07-22T07:38:36.089Z,30.29
2017-07-22T07:39:50.266Z,30.38
2017-07-22T07:40:52.166Z,30.60
2017-07-22T07:41:54.053Z,30.83
2017-07-22T07:42:55.950Z,31.01
2017-07-22T07:43:57.776Z,31.04
2017-07-22T07:44:59.586Z,31.26
2017-07-22T07:46:01.466Z,31.36
2017-07-22T07:47:03.346Z,31.51
2017-07-22T07:48:05.226Z,31.65
2017-07-22T07:49:19.409Z,31.89
2017-07-22T07:50:21.312Z,31.95
2017-07-22T07:51:23.194Z,32.01
2017-07-22T07:52:25.066Z,32.13
2017-07-22T07:53:26.884Z,32.21
2017-07-22T07:54:28.725Z,32.25
2017-07-22T07:55:30.622Z,32.29
2017-07-22T07:56:32.504Z,32.29
2017-07-22T07:57:34.389Z,32.29
2017-07-22T07:58:48.569Z,32.35
2017-07-22T07:59:50.474Z,32.41
2017-07-22T08:00:52.375Z,32.48
2017-07-22T08:01:54.279Z,32.52
2017-07-22T08:02:56.100Z,32.41
2017-07-22T08:03:57.935Z,32.41
2017-07-22T08:04:59.820Z,32.38
2017-07-22T08:06:01.722Z,32.35
2017-07-22T08:07:03.597Z,32.41
2017-07-22T08:08:17.754Z,32.40
2017-07-22T08:09:19.632Z,32.40
2017-07-22T08:10:21.512Z,32.52
2017-07-22T08:11:23.420Z,32.59
2017-07-22T08:12:25.239Z,32.51
2017-07-22T08:13:27.059Z,32.65
2017-07-22T08:14:28.962Z,32.63
2017-07-22T08:15:30.863Z,32.65
2017-07-22T08:16:32.743Z,32.70
2017-07-22T08:17:46.924Z,32.67
2017-07-22T08:18:48.828Z,32.75
2017-07-22T08:19:50.730Z,32.66
2017-07-22T08:20:52.607Z,32.70
2017-07-22T08:21:54.426Z,32.85
2017-07-22T08:22:56.272Z,32.94
2017-07-22T08:23:58.142Z,32.99
2017-07-22T08:25:00.029Z,33.00
2017-07-22T08:26:01.936Z,33.09
2017-07-22T08:27:16.112Z,33.01
2017-07-22T08:28:17.992Z,32.92
2017-07-22T08:29:19.891Z,32.84
2017-07-22T08:30:21.769Z,32.87
2017-07-22T08:31:23.590Z,32.70
2017-07-22T08:32:25.415Z,32.66
2017-07-22T08:33:27.302Z,32.67
2017-07-22T08:34:29.184Z,32.74
2017-07-22T08:35:31.093Z,32.62
2017-07-22T08:36:45.264Z,32.57
2017-07-22T08:37:47.148Z,32.40
2017-07-22T08:38:49.056Z,32.40
2017-07-22T08:39:50.956Z,32.15
2017-07-22T08:40:52.773Z,32.10
2017-07-22T08:41:54.616Z,32.01
2017-07-22T08:42:56.520Z,32.03
2017-07-22T08:43:58.391Z,31.85
2017-07-22T08:45:00.272Z,31.85
2017-07-22T08:46:14.428Z,31.78
2017-07-22T08:47:16.331Z,31.76
2017-07-22T08:48:18.237Z,31.63
2017-07-22T08:49:20.117Z,31.70
2017-07-22T08:50:21.963Z,31.58
2017-07-22T08:51:23.797Z,31.68
2017-07-22T08:52:25.671Z,31.68
2017-07-22T08:53:27.556Z,31.61
2017-07-22T08:54:29.460Z,31.63
2017-07-22T08:55:43.632Z,31.58
2017-07-22T08:56:45.510Z,31.62
2017-07-22T08:57:47.389Z,31.61
2017-07-22T08:58:49.290Z,31.53
2017-07-22T08:59:51.131Z,31.57
2017-07-22T09:00:52.969Z,31.57
2017-07-22T09:01:54.844Z,31.51
2017-07-22T09:02:56.717Z,31.56
2017-07-22T09:03:58.600Z,31.44
2017-07-22T09:05:12.779Z,31.44
2017-07-22T09:06:14.650Z,31.41
2017-07-22T09:07:16.531Z,31.32
2017-07-22T09:08:18.404Z,31.31
2017-07-22T09:09:20.213Z,31.34
2017-07-22T09:10:22.028Z,31.29
2017-07-22T09:11:23.908Z,31.34
2017-07-22T09:12:25.810Z,31.34
2017-07-22T09:13:27.708Z,31.29
2017-07-22T09:14:41.864Z,31.21
2017-07-22T09:15:43.767Z,31.26
2017-07-22T09:16:45.668Z,31.29
2017-07-22T09:17:47.538Z,31.34
2017-07-22T09:18:49.369Z,31.32
2017-07-22T09:19:51.172Z,31.43
2017-07-22T09:20:53.047Z,31.38
2017-07-22T09:21:54.930Z,31.38
2017-07-22T09:22:56.834Z,31.35
2017-07-22T09:24:11.008Z,31.28
2017-07-22T09:25:12.909Z,31.36
2017-07-22T09:26:14.811Z,31.28
2017-07-22T09:27:16.708Z,31.36
2017-07-22T09:28:18.525Z,31.34
2017-07-22T09:29:20.335Z,31.25
2017-07-22T09:30:22.216Z,31.36
2017-07-22T09:31:24.091Z,31.39
2017-07-22T09:32:25.995Z,31.36
2017-07-22T09:33:40.173Z,31.39
2017-07-22T09:34:42.071Z,31.35
2017-07-22T09:35:43.951Z,31.36
2017-07-22T09:36:45.834Z,31.38
2017-07-22T09:37:47.643Z,31.25
2017-07-22T09:38:49.459Z,31.31
2017-07-22T09:39:51.360Z,31.32
2017-07-22T09:40:53.264Z,31.25
2017-07-22T09:41:55.163Z,31.38
2017-07-22T09:43:09.342Z,31.38
2017-07-22T09:44:11.220Z,31.44
2017-07-22T09:45:13.095Z,31.38
2017-07-22T09:46:14.968Z,31.35
2017-07-22T09:47:16.787Z,31.32
2017-07-22T09:48:18.598Z,31.41
2017-07-22T09:49:20.473Z,31.48
2017-07-22T09:50:22.360Z,31.44
2017-07-22T09:51:24.258Z,31.43
2017-07-22T09:52:38.487Z,31.46
2017-07-22T09:53:40.390Z,31.46
2017-07-22T09:54:42.269Z,31.58
2017-07-22T09:55:44.162Z,31.58
2017-07-22T09:56:45.985Z,31.58
2017-07-22T09:57:47.822Z,31.61
2017-07-22T09:58:49.720Z,31.61
2017-07-22T09:59:51.597Z,31.75
2017-07-22T10:00:53.496Z,31.78
2017-07-22T10:02:07.648Z,31.89
2017-07-22T10:03:09.525Z,31.86
2017-07-22T10:04:11.398Z,31.89
2017-07-22T10:05:13.277Z,31.91
2017-07-22T10:06:15.100Z,32.01
2017-07-22T10:07:16.936Z,32.00
2017-07-22T10:08:18.828Z,32.10
2017-07-22T10:09:20.710Z,32.10
2017-07-22T10:10:22.610Z,32.19
2017-07-22T10:11:36.764Z,32.26
2017-07-22T10:12:38.661Z,32.29
2017-07-22T10:13:40.541Z,32.29
2017-07-22T10:14:42.415Z,32.41
2017-07-22T10:15:44.230Z,32.44
2017-07-22T10:16:46.050Z,32.45
2017-07-22T10:17:47.918Z,32.52
2017-07-22T10:18:49.804Z,32.56
2017-07-22T10:19:51.700Z,32.59
2017-07-22T10:21:05.848Z,32.63
2017-07-22T10:22:07.727Z,32.70
2017-07-22T10:23:09.627Z,32.74
2017-07-22T10:24:11.531Z,32.78
2017-07-22T10:25:13.331Z,32.79
2017-07-22T10:26:15.150Z,32.78
2017-07-22T10:27:17.054Z,32.81
2017-07-22T10:28:18.962Z,32.96
2017-07-22T10:29:20.860Z,32.89
2017-07-22T10:30:35.013Z,33.09
2017-07-22T10:31:36.890Z,33.22
2017-07-22T10:32:38.766Z,33.23
2017-07-22T10:33:40.646Z,33.22
2017-07-22T10:34:42.464Z,33.23
2017-07-22T10:35:44.281Z,33.39
2017-07-22T10:36:46.164Z,33.38
2017-07-22T10:37:48.067Z,33.50
2017-07-22T10:38:49.970Z,33.76
2017-07-22T10:40:04.135Z,33.90
2017-07-22T10:41:06.024Z,33.94
2017-07-22T10:42:07.907Z,34.02
2017-07-22T10:43:09.810Z,34.10
2017-07-22T10:44:11.653Z,33.97
2017-07-22T10:45:13.472Z,33.98
2017-07-22T10:46:15.352Z,33.95
2017-07-22T10:47:17.235Z,33.97
2017-07-22T10:48:19.134Z,34.02
2017-07-22T10:49:33.297Z,34.02
2017-07-22T10:50:35.204Z,34.03
2017-07-22T10:51:37.106Z,34.03
2017-07-22T10:52:39.009Z,34.10
2017-07-22T10:53:40.830Z,34.19
2017-07-22T10:54:42.648Z,34.12
2017-07-22T10:55:44.553Z,34.16
2017-07-22T10:56:46.454Z,34.15
2017-07-22T10:57:48.332Z,34.06
2017-07-22T10:59:02.493Z,34.02
2017-07-22T11:00:04.397Z,34.15
2017-07-22T11:01:06.298Z,34.02
2017-07-22T11:02:08.177Z,34.10
2017-07-22T11:03:09.996Z,34.19
2017-07-22T11:04:11.818Z,34.28
2017-07-22T11:05:13.696Z,34.28
2017-07-22T11:06:15.572Z,34.44
2017-07-22T11:07:17.455Z,34.46
2017-07-22T11:08:31.632Z,34.54
2017-07-22T11:09:33.515Z,34.62
2017-07-22T11:10:35.423Z,34.58
2017-07-22T11:11:37.301Z,34.44
2017-07-22T11:12:39.153Z,34.37
2017-07-22T11:13:40.985Z,34.34
2017-07-22T11:14:42.860Z,34.32
2017-07-22T11:15:44.750Z,34.40
2017-07-22T11:16:46.631Z,34.42
2017-07-22T11:18:00.783Z,34.35
2017-07-22T11:19:02.664Z,34.52
2017-07-22T11:20:04.539Z,34.54
2017-07-22T11:21:06.421Z,34.66
2017-07-22T11:22:08.259Z,34.84
2017-07-22T11:23:10.081Z,34.94
2017-07-22T11:24:11.961Z,34.91
2017-07-22T11:25:13.847Z,34.97
2017-07-22T11:26:15.747Z,35.14
2017-07-22T11:27:29.911Z,35.04
2017-07-22T11:28:31.814Z,34.91
2017-07-22T11:29:33.717Z,34.89
2017-07-22T11:30:35.598Z,34.91
2017-07-22T11:31:37.422Z,35.03
2017-07-22T11:32:39.260Z,34.96
2017-07-22T11:33:41.144Z,35.03
2017-07-22T11:34:43.047Z,35.15
2017-07-22T11:35:44.949Z,35.10
2017-07-22T11:36:59.135Z,35.28
2017-07-22T11:38:01.038Z,35.37
2017-07-22T11:39:02.943Z,35.31
2017-07-22T11:40:04.848Z,35.25
2017-07-22T11:41:06.695Z,35.26
2017-07-22T11:42:08.512Z,35.28
2017-07-22T11:43:10.387Z,35.33
2017-07-22T11:44:12.265Z,35.40
2017-07-22T11:45:14.146Z,35.43
2017-07-22T11:46:28.312Z,35.60
2017-07-22T11:47:30.215Z,35.74
2017-07-22T11:48:32.119Z,35.77
2017-07-22T11:49:34.023Z,35.94
2017-07-22T11:50:35.845Z,36.00
2017-07-22T11:51:37.687Z,36.12
2017-07-22T11:52:39.570Z,36.08
2017-07-22T11:53:41.477Z,36.00
2017-07-22T11:54:43.382Z,35.96
2017-07-22T11:55:57.541Z,35.96
2017-07-22T11:56:59.423Z,35.82
2017-07-22T11:58:01.328Z,35.81
2017-07-22T11:59:03.242Z,35.81
2017-07-22T12:00:05.070Z,35.63
2017-07-22T12:01:06.896Z,35.63
2017-07-22T12:02:08.782Z,35.62
2017-07-22T12:03:10.700Z,35.60
2017-07-22T12:04:12.614Z,35.63
2017-07-22T12:05:26.786Z,35.66
2017-07-22T12:06:28.704Z,35.66
2017-07-22T12:07:30.592Z,35.71
2017-07-22T12:08:32.480Z,35.78
2017-07-22T12:09:34.309Z,35.96
2017-07-22T12:10:36.126Z,35.96
2017-07-22T12:11:38.024Z,36.01
2017-07-22T12:12:39.907Z,36.16
2017-07-22T12:13:41.791Z,36.20
2017-07-22T12:14:55.972Z,36.35
2017-07-22T12:15:57.850Z,36.31
2017-07-22T12:16:59.738Z,36.47
2017-07-22T12:18:01.615Z,36.59
2017-07-22T12:19:03.438Z,36.64
2017-07-22T12:20:05.278Z,36.85
2017-07-22T12:21:07.159Z,36.90
2017-07-22T12:22:09.049Z,36.94
2017-07-22T12:23:10.955Z,37.05
2017-07-22T12:24:25.134Z,37.02
2017-07-22T12:25:27.016Z,36.88
2017-07-22T12:26:28.897Z,36.87
2017-07-22T12:27:30.773Z,36.84
2017-07-22T12:28:32.595Z,36.83
2017-07-22T12:29:34.421Z,36.78
2017-07-22T12:30:36.316Z,36.75
2017-07-22T12:31:38.200Z,36.81
2017-07-22T12:32:40.080Z,36.76
2017-07-22T12:33:54.244Z,36.68
2017-07-22T12:34:56.150Z,36.60
2017-07-22T12:35:58.037Z,36.57
2017-07-22T12:36:59.934Z,36.54
2017-07-22T12:38:01.756Z,36.50
2017-07-22T12:39:03.580Z,36.49
2017-07-22T12:40:05.486Z,36.49
2017-07-22T12:41:07.390Z,36.43
2017-07-22T12:42:09.271Z,36.51
2017-07-22T12:43:23.435Z,36.43
2017-07-22T12:44:25.319Z,36.43
2017-07-22T12:45:27.202Z,36.47
2017-07-22T12:46:29.109Z,36.49
2017-07-22T12:47:30.959Z,36.50
2017-07-22T12:48:32.794Z,36.50
2017-07-22T12:49:34.675Z,36.43
2017-07-22T12:50:36.562Z,36.50
2017-07-22T12:51:38.482Z,36.54
2017-07-22T12:52:52.649Z,36.51
2017-07-22T12:53:54.529Z,36.53
2017-07-22T12:54:56.415Z,36.51
2017-07-22T12:55:58.321Z,36.46
2017-07-22T12:57:00.168Z,36.41
2017-07-22T12:58:02.008Z,36.46
2017-07-22T12:59:03.888Z,36.38
2017-07-22T13:00:05.773Z,36.39
2017-07-22T13:01:07.660Z,36.43
2017-07-22T13:02:21.841Z,36.35
2017-07-22T13:03:23.723Z,36.31
2017-07-22T13:04:25.605Z,36.13
2017-07-22T13:05:27.486Z,36.25
2017-07-22T13:06:29.328Z,36.17
2017-07-22T13:07:31.152Z,36.13
2017-07-22T13:08:33.033Z,36.29
2017-07-22T13:09:34.949Z,36.20
2017-07-22T13:10:36.848Z,36.16
2017-07-22T13:11:51.029Z,36.19
2017-07-22T13:12:52.907Z,36.12
2017-07-22T13:13:54.787Z,36.22
2017-07-22T13:14:56.670Z,36.08
2017-07-22T13:15:58.514Z,36.13
2017-07-22T13:17:00.329Z,36.03
2017-07-22T13:18:02.208Z,36.07
2017-07-22T13:19:04.094Z,35.99
2017-07-22T13:20:05.970Z,36.03
2017-07-22T13:21:20.136Z,35.97
2017-07-22T13:22:22.039Z,36.09
2017-07-22T13:23:23.923Z,36.07
2017-07-22T13:24:25.806Z,35.99
2017-07-22T13:25:27.644Z,36.00
2017-07-22T13:26:29.467Z,35.82
2017-07-22T13:27:31.359Z,35.77
2017-07-22T13:28:33.262Z,35.66
2017-07-22T13:29:35.143Z,35.63
2017-07-22T13:30:49.327Z,35.55
2017-07-22T13:31:51.235Z,35.44
2017-07-22T13:32:53.134Z,35.34
2017-07-22T13:33:55.021Z,35.29